Poularies, Canada
Current Conditions -  °F | °C
As of 3:00 PM on Friday 19 Dec 2014 (Local Time) from CYUY Reporting Station
Few Clouds Few Clouds  
Wind Chill: 12°   Ceiling: Unl
Heat Index: 12°   Visibility: 15mi
Dew Point:   Wind: 2mph
Humidity: 85%   Direction: 210°SSW
Pressure: 30.22"   Gusts: NA
Location:  48.67°N, 78.98°W
Report Text: CYUY 192000Z 21002KT 15SM FEW012 FEW100 FEW230 M11/M13 A3022 RMK CF1AC1CI1 CF TR AC TR CI TR SLP262
Loading
Personal Weather Stations






























Interactive Weather Map New forecast layout! Learn more

10-Day Weather Forecast

Advertisements
Track Severe Weather on mobile